createdAt,value
2019-05-29T00:00:11.000Z,100448
2019-05-29T00:02:11.000Z,100443
2019-05-29T00:03:11.000Z,100448
2019-05-29T00:04:56.000Z,100449
2019-05-29T00:06:11.000Z,100449
2019-05-29T00:08:11.000Z,100457
2019-05-29T00:10:11.000Z,100459
2019-05-29T00:12:11.000Z,100458
2019-05-29T00:13:56.000Z,100463
2019-05-29T00:15:11.000Z,100464
2019-05-29T00:17:11.000Z,100467
2019-05-29T00:18:56.000Z,100466
2019-05-29T00:21:11.000Z,100465
2019-05-29T00:22:56.000Z,100476
2019-05-29T00:24:11.000Z,100477
2019-05-29T00:26:11.000Z,100476
2019-05-29T00:28:11.000Z,100474
2019-05-29T00:30:11.000Z,100482
2019-05-29T00:32:11.000Z,100479
2019-05-29T00:34:11.000Z,100482
2019-05-29T00:36:11.000Z,100493
2019-05-29T00:38:11.000Z,100490
2019-05-29T00:39:56.000Z,100495
2019-05-29T00:41:11.000Z,100498
2019-05-29T00:42:56.000Z,100494
2019-05-29T00:44:11.000Z,100495
2019-05-29T00:45:11.000Z,100503
2019-05-29T00:46:11.000Z,100495
2019-05-29T00:47:56.000Z,100496
2019-05-29T00:50:11.000Z,100498
2019-05-29T00:51:56.000Z,100504
2019-05-29T00:53:11.000Z,100507
2019-05-29T00:54:56.000Z,100503
2019-05-29T00:56:11.000Z,100505
2019-05-29T00:58:11.000Z,100503
2019-05-29T01:00:11.000Z,100514
2019-05-29T01:01:11.000Z,100511
2019-05-29T01:02:11.000Z,100513
2019-05-29T01:03:11.000Z,100513
2019-05-29T01:05:11.000Z,100514
2019-05-29T01:07:11.000Z,100514
2019-05-29T01:09:11.000Z,100518
2019-05-29T01:11:11.000Z,100523
2019-05-29T01:12:56.000Z,100517
2019-05-29T01:14:11.000Z,100531
2019-05-29T01:16:11.000Z,100530
2019-05-29T01:17:11.000Z,100527
2019-05-29T01:19:11.000Z,100524
2019-05-29T01:20:56.000Z,100526
2019-05-29T01:22:11.000Z,100524
2019-05-29T01:24:11.000Z,100535
2019-05-29T01:25:56.000Z,100536
2019-05-29T01:27:11.000Z,100532
2019-05-29T01:29:11.000Z,100542
2019-05-29T01:31:11.000Z,100545
2019-05-29T01:32:56.000Z,100543
2019-05-29T01:34:11.000Z,100541
2019-05-29T01:36:11.000Z,100545
2019-05-29T01:37:11.000Z,100546
2019-05-29T01:39:11.000Z,100548
2019-05-29T01:41:11.000Z,100547
2019-05-29T01:42:11.000Z,100545
2019-05-29T01:44:11.000Z,100546
2019-05-29T01:45:56.000Z,100553
2019-05-29T01:47:11.000Z,100549
2019-05-29T01:48:11.000Z,100552
2019-05-29T01:49:56.000Z,100551
2019-05-29T01:51:11.000Z,100554
2019-05-29T01:53:11.000Z,100563
2019-05-29T01:54:11.000Z,100556
2019-05-29T01:55:11.000Z,100562
2019-05-29T01:57:11.000Z,100567
2019-05-29T01:58:56.000Z,100570
2019-05-29T02:00:11.000Z,100566
2019-05-29T02:02:11.000Z,100569
2019-05-29T02:04:11.000Z,100577
2019-05-29T02:05:11.000Z,100572
2019-05-29T02:07:11.000Z,100567
2019-05-29T02:08:56.000Z,100572
2019-05-29T02:10:11.000Z,100570
2019-05-29T02:11:56.000Z,100576
2019-05-29T02:13:11.000Z,100573
2019-05-29T02:14:11.000Z,100574
2019-05-29T02:15:11.000Z,100574
2019-05-29T02:17:11.000Z,100577
2019-05-29T02:19:11.000Z,100578
2019-05-29T02:20:11.000Z,100580
2019-05-29T02:21:11.000Z,100581
2019-05-29T02:23:11.000Z,100588
2019-05-29T02:24:56.000Z,100591
2019-05-29T02:26:11.000Z,100591
2019-05-29T02:27:56.000Z,100591
2019-05-29T02:29:11.000Z,100593
2019-05-29T02:30:56.000Z,100598
2019-05-29T02:32:11.000Z,100600
2019-05-29T02:34:11.000Z,100601
2019-05-29T02:35:11.000Z,100601
2019-05-29T02:37:11.000Z,100597
2019-05-29T02:38:56.000Z,100601
2019-05-29T02:40:11.000Z,100603
2019-05-29T02:41:56.000Z,100605
2019-05-29T02:42:56.000Z,100603
2019-05-29T02:44:11.000Z,100606
2019-05-29T02:45:41.000Z,100601
2019-05-29T02:47:11.000Z,100605
2019-05-29T02:48:11.000Z,100603
2019-05-29T02:50:11.000Z,100609
2019-05-29T02:51:11.000Z,100616
2019-05-29T02:53:11.000Z,100610
2019-05-29T02:55:11.000Z,100614
2019-05-29T02:56:41.000Z,100616
2019-05-29T02:58:11.000Z,100617
2019-05-29T02:59:11.000Z,100616
2019-05-29T03:00:11.000Z,100618
2019-05-29T03:02:11.000Z,100620
2019-05-29T03:04:11.000Z,100627
2019-05-29T03:06:11.000Z,100633
2019-05-29T03:08:11.000Z,100634
2019-05-29T03:09:56.000Z,100632
2019-05-29T03:11:11.000Z,100633
2019-05-29T03:13:11.000Z,100637
2019-05-29T03:15:11.000Z,100636
2019-05-29T03:16:56.000Z,100640
2019-05-29T03:18:11.000Z,100642
2019-05-29T03:20:11.000Z,100640
2019-05-29T03:22:11.000Z,100644
2019-05-29T03:23:56.000Z,100644
2019-05-29T03:25:11.000Z,100648
2019-05-29T03:26:11.000Z,100645
2019-05-29T03:28:11.000Z,100652
2019-05-29T03:30:11.000Z,100651
2019-05-29T03:31:41.000Z,100653
2019-05-29T03:32:47.000Z,100637
2019-05-29T03:33:49.000Z,100643
2019-05-29T03:35:41.000Z,100660
2019-05-29T03:36:47.000Z,100658
2019-05-29T03:37:56.000Z,100667
2019-05-29T03:40:11.000Z,100667
2019-05-29T03:41:56.000Z,100669
2019-05-29T03:43:11.000Z,100671
2019-05-29T03:44:11.000Z,100666
2019-05-29T03:45:56.000Z,100664
2019-05-29T03:48:11.000Z,100666
2019-05-29T03:49:11.000Z,100670
2019-05-29T03:51:11.000Z,100670
2019-05-29T03:53:11.000Z,100663
2019-05-29T03:55:11.000Z,100673
2019-05-29T03:57:11.000Z,100670
2019-05-29T03:59:11.000Z,100671
2019-05-29T04:00:41.000Z,100677
2019-05-29T04:43:53.000Z,100739
2019-05-29T04:45:24.000Z,100749
2019-05-29T04:46:24.000Z,100744
2019-05-29T04:48:24.000Z,100757
2019-05-29T04:50:09.000Z,100752
2019-05-29T04:51:24.000Z,100754
2019-05-29T04:53:24.000Z,100760
2019-05-29T04:54:24.000Z,100759
2019-05-29T04:55:24.000Z,100759
2019-05-29T04:57:24.000Z,100761
2019-05-29T04:58:24.000Z,100763
2019-05-29T05:00:08.000Z,100762
2019-05-29T05:02:24.000Z,100766
2019-05-29T05:03:24.000Z,100765
2019-05-29T05:04:24.000Z,100767
2019-05-29T05:06:24.000Z,100773
2019-05-29T05:08:24.000Z,100767
2019-05-29T05:09:24.000Z,100771
2019-05-29T05:11:08.000Z,100774
2019-05-29T05:12:24.000Z,100767
2019-05-29T05:14:24.000Z,100774
2019-05-29T05:15:24.000Z,100776
2019-05-29T05:16:24.000Z,100778
2019-05-29T05:18:08.000Z,100773
2019-05-29T05:19:24.000Z,100780
2019-05-29T05:20:24.000Z,100773
2019-05-29T05:22:24.000Z,100775
2019-05-29T05:23:24.000Z,100784
2019-05-29T05:25:24.000Z,100781
2019-05-29T05:27:24.000Z,100785
2019-05-29T05:28:24.000Z,100784
2019-05-29T05:30:24.000Z,100796
2019-05-29T05:31:24.000Z,100793
2019-05-29T05:32:24.000Z,100796
2019-05-29T05:33:24.000Z,100800
2019-05-29T05:35:24.000Z,100805
2019-05-29T05:36:24.000Z,100804
2019-05-29T05:38:24.000Z,100800
2019-05-29T05:40:24.000Z,100806
2019-05-29T05:42:24.000Z,100811
2019-05-29T05:44:08.000Z,100806
2019-05-29T05:45:24.000Z,100811
2019-05-29T05:47:09.000Z,100813
2019-05-29T05:49:24.000Z,100810
2019-05-29T05:50:24.000Z,100809
2019-05-29T05:52:24.000Z,100814
2019-05-29T05:54:09.000Z,100821
2019-05-29T05:55:24.000Z,100819
2019-05-29T05:57:24.000Z,100823
2019-05-29T05:59:09.000Z,100825
2019-05-29T06:00:24.000Z,100830
2019-05-29T06:02:24.000Z,100837
2019-05-29T06:04:24.000Z,100834
2019-05-29T06:05:24.000Z,100834
2019-05-29T06:06:54.000Z,100841
2019-05-29T06:08:24.000Z,100834
2019-05-29T06:10:09.000Z,100836
2019-05-29T06:11:24.000Z,100837
2019-05-29T06:12:24.000Z,100837
2019-05-29T06:13:24.000Z,100835
2019-05-29T06:15:24.000Z,100841
2019-05-29T06:16:24.000Z,100840
2019-05-29T06:17:54.000Z,100841
2019-05-29T06:19:24.000Z,100838
2019-05-29T06:20:24.000Z,100836
2019-05-29T06:22:24.000Z,100835
2019-05-29T06:23:24.000Z,100840
2019-05-29T06:24:24.000Z,100845
2019-05-29T06:26:24.000Z,100841
2019-05-29T06:28:09.000Z,100846
2019-05-29T06:29:24.000Z,100845
2019-05-29T06:31:24.000Z,100854
2019-05-29T06:33:24.000Z,100852
2019-05-29T06:35:24.000Z,100854
2019-05-29T06:36:24.000Z,100852
2019-05-29T06:38:24.000Z,100853
2019-05-29T06:40:09.000Z,100859
2019-05-29T06:41:24.000Z,100858
2019-05-29T06:43:09.000Z,100850
2019-05-29T06:45:09.000Z,100855
2019-05-29T06:46:24.000Z,100867
2019-05-29T06:48:24.000Z,100860
2019-05-29T06:50:23.000Z,100866
2019-05-29T06:52:23.000Z,100860
2019-05-29T06:53:23.000Z,100862
2019-05-29T06:54:23.000Z,100861
2019-05-29T06:55:53.000Z,100866
2019-05-29T06:57:23.000Z,100866
2019-05-29T06:59:23.000Z,100865
2019-05-29T07:01:08.000Z,100864
2019-05-29T07:02:23.000Z,100866
2019-05-29T07:03:53.000Z,100862
2019-05-29T07:05:23.000Z,100869
2019-05-29T07:07:08.000Z,100868
2019-05-29T07:08:08.000Z,100869
2019-05-29T07:10:23.000Z,100875
2019-05-29T07:12:23.000Z,100869
2019-05-29T07:13:23.000Z,100874
2019-05-29T07:15:23.000Z,100876
2019-05-29T07:16:23.000Z,100875
2019-05-29T07:18:23.000Z,100878
2019-05-29T07:20:02.000Z,100881
2019-05-29T07:21:23.000Z,100876
2019-05-29T07:22:23.000Z,100881
2019-05-29T07:23:23.000Z,100878
2019-05-29T07:25:23.000Z,100884
2019-05-29T07:26:23.000Z,100885
2019-05-29T07:28:23.000Z,100887
2019-05-29T07:30:23.000Z,100886
2019-05-29T07:32:23.000Z,100884
2019-05-29T07:34:23.000Z,100885
2019-05-29T07:36:23.000Z,100883
2019-05-29T07:37:23.000Z,100883
2019-05-29T07:38:23.000Z,100895
2019-05-29T07:40:23.000Z,100894
2019-05-29T07:41:23.000Z,100899
2019-05-29T07:42:23.000Z,100894
2019-05-29T07:44:23.000Z,100890
2019-05-29T07:46:23.000Z,100897
2019-05-29T07:48:08.000Z,100901
2019-05-29T07:50:23.000Z,100903
2019-05-29T07:52:23.000Z,100901
2019-05-29T07:54:24.000Z,100908
2019-05-29T07:56:09.000Z,100913
2019-05-29T07:57:24.000Z,100916
2019-05-29T07:58:24.000Z,100917
2019-05-29T08:00:24.000Z,100914
2019-05-29T08:02:24.000Z,100920
2019-05-29T08:03:24.000Z,100915
2019-05-29T08:05:24.000Z,100919
2019-05-29T08:07:09.000Z,100914
2019-05-29T08:08:24.000Z,100917
2019-05-29T08:18:28.000Z,100917
2019-05-29T08:19:59.000Z,100922
2019-05-29T08:21:14.000Z,100923
2019-05-29T08:22:14.000Z,100924
2019-05-29T08:23:59.000Z,100922
2019-05-29T08:25:43.000Z,100921
2019-05-29T08:26:44.000Z,100921
2019-05-29T08:27:59.000Z,100923
2019-05-29T08:29:59.000Z,100928
2019-05-29T08:31:44.000Z,100927
2019-05-29T08:33:59.000Z,100931
2019-05-29T08:35:45.000Z,100932
2019-05-29T08:36:59.000Z,100925
2019-05-29T09:19:56.000Z,100943
2019-05-29T09:21:02.000Z,100949
2019-05-29T09:22:12.000Z,100947
2019-05-29T09:23:12.000Z,100946
2019-05-29T09:25:12.000Z,100941
2019-05-29T09:27:12.000Z,100939
2019-05-29T09:28:12.000Z,100944
2019-05-29T09:29:12.000Z,100940
2019-05-29T09:31:12.000Z,100935
2019-05-29T09:32:12.000Z,100940
2019-05-29T09:34:12.000Z,100945
2019-05-29T09:36:12.000Z,100941
2019-05-29T09:38:12.000Z,100934
2019-05-29T09:40:12.000Z,100937
2019-05-29T09:41:57.000Z,100938
2019-05-29T09:43:12.000Z,100940
2019-05-29T09:45:12.000Z,100939
2019-05-29T09:47:27.000Z,100944
2019-05-29T09:48:27.000Z,100944
2019-05-29T09:50:27.000Z,100943
2019-05-29T09:52:27.000Z,100939
2019-05-29T09:53:57.000Z,100942
2019-05-29T09:55:27.000Z,100942
2019-05-29T09:56:59.000Z,100939
2019-05-29T09:58:57.000Z,100946
2019-05-29T10:00:01.000Z,100944
2019-05-29T10:01:13.000Z,100944
2019-05-29T10:02:58.000Z,100949
2019-05-29T10:04:01.000Z,100954
2019-05-29T10:05:58.000Z,100954
2019-05-29T10:07:14.000Z,100956
2019-05-29T10:08:59.000Z,100961
2019-05-29T10:10:00.000Z,100950
2019-05-29T10:12:03.000Z,100957
2019-05-29T10:13:58.000Z,100956
2019-05-29T10:15:00.000Z,100950
2019-05-29T10:16:58.000Z,100958
2019-05-29T10:18:13.000Z,100957
2019-05-29T10:19:58.000Z,100953
2019-05-29T10:21:58.000Z,100954
2019-05-29T11:05:05.000Z,100941
2019-05-29T11:06:36.000Z,100943
2019-05-29T11:08:51.000Z,100936
2019-05-29T11:10:51.000Z,100941
2019-05-29T11:12:36.000Z,100945
2019-05-29T11:14:51.000Z,100945
2019-05-29T11:16:36.000Z,100943
2019-05-29T11:18:51.000Z,100938
2019-05-29T11:20:51.000Z,100940
2019-05-29T11:22:21.000Z,100929
2019-05-29T12:05:26.000Z,100918
2019-05-29T12:06:57.000Z,100927
2019-05-29T12:07:57.000Z,100928
2019-05-29T12:08:57.000Z,100928
2019-05-29T12:11:12.000Z,100927
2019-05-29T12:12:57.000Z,100925
2019-05-29T12:13:57.000Z,100924
2019-05-29T12:15:57.000Z,100926
2019-05-29T12:16:57.000Z,100923
2019-05-29T12:18:57.000Z,100923
2019-05-29T12:20:57.000Z,100920
2019-05-29T12:22:42.000Z,100918
2019-05-29T12:23:57.000Z,100917
2019-05-29T12:24:57.000Z,100915
2019-05-29T12:26:57.000Z,100914
2019-05-29T12:28:42.000Z,100904
2019-05-29T12:29:57.000Z,100906
2019-05-29T12:31:57.000Z,100896
2019-05-29T12:33:57.000Z,100898
2019-05-29T12:36:12.000Z,100895
2019-05-29T12:37:12.000Z,100902
2019-05-29T12:38:57.000Z,100895
2019-05-29T12:40:57.000Z,100899
2019-05-29T12:42:42.000Z,100889
2019-05-29T12:43:57.000Z,100894
2019-05-29T12:44:57.000Z,100893
2019-05-29T12:46:57.000Z,100900
2019-05-29T12:49:12.000Z,100891
2019-05-29T12:50:57.000Z,100895
2019-05-29T12:52:57.000Z,100902
2019-05-29T12:54:57.000Z,100897
2019-05-29T12:56:57.000Z,100891
2019-05-29T12:58:57.000Z,100890
2019-05-29T13:00:57.000Z,100889
2019-05-29T13:02:57.000Z,100889
2019-05-29T13:04:42.000Z,100893
2019-05-29T13:05:57.000Z,100892
2019-05-29T13:07:57.000Z,100889
2019-05-29T13:09:57.000Z,100887
2019-05-29T13:11:57.000Z,100890
2019-05-29T13:13:57.000Z,100891
2019-05-29T13:14:57.000Z,100890
2019-05-29T13:16:57.000Z,100884
2019-05-29T13:18:57.000Z,100881
2019-05-29T13:19:57.000Z,100881
2019-05-29T13:22:12.000Z,100875
2019-05-29T13:23:42.000Z,100873
2019-05-29T13:25:12.000Z,100871
2019-05-29T13:26:12.000Z,100870
2019-05-29T13:27:57.000Z,100872
2019-05-29T13:29:57.000Z,100872
2019-05-29T13:30:57.000Z,100872
2019-05-29T13:31:57.000Z,100872
2019-05-29T13:33:57.000Z,100874
2019-05-29T13:34:57.000Z,100869
2019-05-29T13:36:57.000Z,100868
2019-05-29T13:38:12.000Z,100873
2019-05-29T13:39:57.000Z,100873
2019-05-29T13:40:57.000Z,100872
2019-05-29T13:42:57.000Z,100868
2019-05-29T13:44:42.000Z,100864
2019-05-29T13:45:57.000Z,100870
2019-05-29T13:46:57.000Z,100861
2019-05-29T13:48:57.000Z,100863
2019-05-29T13:50:57.000Z,100859
2019-05-29T13:52:57.000Z,100859
2019-05-29T13:53:57.000Z,100854
2019-05-29T13:55:57.000Z,100852
2019-05-29T13:57:57.000Z,100839
2019-05-29T13:58:57.000Z,100847
2019-05-29T14:00:57.000Z,100855
2019-05-29T14:02:57.000Z,100850
2019-05-29T14:03:57.000Z,100850
2019-05-29T14:05:41.000Z,100848
2019-05-29T14:06:57.000Z,100843
2019-05-29T14:08:57.000Z,100849
2019-05-29T14:09:57.000Z,100850
2019-05-29T14:11:57.000Z,100851
2019-05-29T14:13:57.000Z,100839
2019-05-29T14:16:11.000Z,100840
2019-05-29T14:17:56.000Z,100842
2019-05-29T14:20:11.000Z,100841
2019-05-29T14:22:11.000Z,100840
2019-05-29T14:23:11.000Z,100839
2019-05-29T14:25:11.000Z,100844
2019-05-29T14:26:56.000Z,100842
2019-05-29T14:28:11.000Z,100843
2019-05-29T14:30:11.000Z,100842
2019-05-29T14:32:11.000Z,100841
2019-05-29T14:34:11.000Z,100837
2019-05-29T14:36:11.000Z,100838
2019-05-29T14:38:11.000Z,100834
2019-05-29T14:40:11.000Z,100842
2019-05-29T14:41:41.000Z,100835
2019-05-29T14:43:11.000Z,100839
2019-05-29T14:45:11.000Z,100835
2019-05-29T14:47:11.000Z,100841
2019-05-29T14:49:11.000Z,100840
2019-05-29T14:50:11.000Z,100841
2019-05-29T14:51:11.000Z,100841
2019-05-29T14:52:11.000Z,100837
2019-05-29T14:54:11.000Z,100842
2019-05-29T14:56:11.000Z,100842
2019-05-29T14:57:11.000Z,100837
2019-05-29T14:59:11.000Z,100835
2019-05-29T15:01:11.000Z,100838
2019-05-29T15:03:11.000Z,100840
2019-05-29T15:04:11.000Z,100841
2019-05-29T15:06:11.000Z,100842
2019-05-29T15:07:11.000Z,100841
2019-05-29T15:09:11.000Z,100835
2019-05-29T15:11:11.000Z,100843
2019-05-29T15:12:56.000Z,100837
2019-05-29T15:15:11.000Z,100842
2019-05-29T15:17:11.000Z,100839
2019-05-29T15:19:12.000Z,100841
2019-05-29T15:20:12.000Z,100835
2019-05-29T15:22:12.000Z,100837
2019-05-29T15:24:12.000Z,100836
2019-05-29T15:26:12.000Z,100838
2019-05-29T15:28:12.000Z,100834
2019-05-29T15:30:12.000Z,100840
2019-05-29T15:32:12.000Z,100834
2019-05-29T15:34:12.000Z,100833
2019-05-29T15:35:12.000Z,100831
2019-05-29T15:36:57.000Z,100842
2019-05-29T15:38:12.000Z,100838
2019-05-29T15:39:57.000Z,100834
2019-05-29T15:41:12.000Z,100836
2019-05-29T15:43:12.000Z,100839
2019-05-29T15:45:12.000Z,100832
2019-05-29T15:46:57.000Z,100837
2019-05-29T15:48:12.000Z,100839
2019-05-29T15:50:12.000Z,100840
2019-05-29T15:52:12.000Z,100837
2019-05-29T15:54:12.000Z,100844
2019-05-29T15:56:12.000Z,100842
2019-05-29T15:58:12.000Z,100841
2019-05-29T16:00:12.000Z,100837
2019-05-29T16:02:12.000Z,100840
2019-05-29T16:04:12.000Z,100845
2019-05-29T16:06:12.000Z,100843
2019-05-29T16:07:57.000Z,100845
2019-05-29T16:09:12.000Z,100843
2019-05-29T16:10:57.000Z,100842
2019-05-29T16:12:12.000Z,100836
2019-05-29T16:14:12.000Z,100839
2019-05-29T16:16:12.000Z,100843
2019-05-29T16:18:12.000Z,100836
2019-05-29T16:20:12.000Z,100838
2019-05-29T16:21:12.000Z,100835
2019-05-29T16:22:57.000Z,100838
2019-05-29T16:24:11.000Z,100831
2019-05-29T16:26:11.000Z,100834
2019-05-29T16:28:11.000Z,100837
2019-05-29T16:30:11.000Z,100829
2019-05-29T16:32:11.000Z,100833
2019-05-29T16:34:11.000Z,100829
2019-05-29T16:35:11.000Z,100825
2019-05-29T16:37:11.000Z,100831
2019-05-29T16:39:11.000Z,100829
2019-05-29T16:41:11.000Z,100831
2019-05-29T16:42:56.000Z,100826
2019-05-29T16:44:11.000Z,100829
2019-05-29T16:46:11.000Z,100832
2019-05-29T16:48:11.000Z,100833
2019-05-29T16:49:56.000Z,100837
2019-05-29T16:51:11.000Z,100830
2019-05-29T16:52:11.000Z,100831
2019-05-29T16:54:11.000Z,100832
2019-05-29T16:55:41.000Z,100833
2019-05-29T16:57:11.000Z,100831
2019-05-29T16:59:11.000Z,100836
2019-05-29T17:01:11.000Z,100827
2019-05-29T17:03:11.000Z,100830
2019-05-29T17:04:56.000Z,100831
2019-05-29T17:06:56.000Z,100840
2019-05-29T17:08:11.000Z,100833
2019-05-29T17:09:11.000Z,100839
2019-05-29T17:11:11.000Z,100837
2019-05-29T17:13:11.000Z,100837
2019-05-29T17:14:11.000Z,100835
2019-05-29T17:15:11.000Z,100829
2019-05-29T17:17:11.000Z,100830
2019-05-29T17:18:11.000Z,100827
2019-05-29T17:19:11.000Z,100832
2019-05-29T17:20:56.000Z,100824
2019-05-29T17:22:11.000Z,100827
2019-05-29T17:24:11.000Z,100826
2019-05-29T17:25:56.000Z,100829
2019-05-29T17:27:11.000Z,100828
2019-05-29T17:28:11.000Z,100829
2019-05-29T17:30:11.000Z,100820
2019-05-29T17:32:11.000Z,100830
2019-05-29T17:33:11.000Z,100824
2019-05-29T17:35:11.000Z,100827
2019-05-29T17:37:11.000Z,100828
2019-05-29T17:38:41.000Z,100829
2019-05-29T17:40:11.000Z,100824
2019-05-29T17:41:56.000Z,100831
2019-05-29T17:42:56.000Z,100829
2019-05-29T17:44:11.000Z,100833
2019-05-29T17:46:11.000Z,100833
2019-05-29T17:48:11.000Z,100830
2019-05-29T17:50:11.000Z,100830
2019-05-29T17:52:11.000Z,100829
2019-05-29T17:54:11.000Z,100831
2019-05-29T17:56:11.000Z,100836
2019-05-29T17:58:11.000Z,100834
2019-05-29T17:59:11.000Z,100842
2019-05-29T18:01:11.000Z,100839
2019-05-29T18:02:11.000Z,100843
2019-05-29T18:04:11.000Z,100841
2019-05-29T18:05:11.000Z,100845
2019-05-29T18:07:11.000Z,100847
2019-05-29T18:08:56.000Z,100841
2019-05-29T18:10:11.000Z,100844
2019-05-29T18:12:11.000Z,100842
2019-05-29T18:13:11.000Z,100839
2019-05-29T18:15:11.000Z,100834
2019-05-29T18:16:11.000Z,100837
2019-05-29T18:17:12.000Z,100835
2019-05-29T18:19:11.000Z,100842
2019-05-29T18:20:11.000Z,100843
2019-05-29T18:22:11.000Z,100838
2019-05-29T18:23:11.000Z,100844
2019-05-29T18:24:41.000Z,100840
2019-05-29T18:26:11.000Z,100841
2019-05-29T18:28:11.000Z,100839
2019-05-29T18:29:11.000Z,100842
2019-05-29T18:30:11.000Z,100842
2019-05-29T18:32:11.000Z,100846
2019-05-29T18:33:11.000Z,100845
2019-05-29T18:35:11.000Z,100842
2019-05-29T18:36:11.000Z,100843
2019-05-29T18:37:56.000Z,100842
2019-05-29T18:39:11.000Z,100842
2019-05-29T18:41:11.000Z,100841
2019-05-29T18:43:11.000Z,100839
2019-05-29T18:45:11.000Z,100838
2019-05-29T18:46:56.000Z,100839
2019-05-29T18:48:11.000Z,100841
2019-05-29T18:50:11.000Z,100835
2019-05-29T18:51:56.000Z,100839
2019-05-29T18:53:11.000Z,100837
2019-05-29T18:54:11.000Z,100840
2019-05-29T18:55:11.000Z,100836
2019-05-29T18:56:11.000Z,100840
2019-05-29T18:58:11.000Z,100836
2019-05-29T19:00:11.000Z,100833
2019-05-29T19:01:11.000Z,100842
2019-05-29T19:02:11.000Z,100841
2019-05-29T19:04:11.000Z,100843
2019-05-29T19:06:11.000Z,100844
2019-05-29T19:07:11.000Z,100841
2019-05-29T19:08:11.000Z,100842
2019-05-29T19:10:11.000Z,100842
2019-05-29T19:12:11.000Z,100846
2019-05-29T19:13:56.000Z,100855
2019-05-29T19:16:11.000Z,100850
2019-05-29T19:17:11.000Z,100855
2019-05-29T19:19:11.000Z,100851
2019-05-29T19:20:11.000Z,100857
2019-05-29T19:22:11.000Z,100855
2019-05-29T19:24:11.000Z,100856
2019-05-29T19:26:11.000Z,100856
2019-05-29T19:27:41.000Z,100856
2019-05-29T19:29:11.000Z,100861
2019-05-29T19:30:11.000Z,100858
2019-05-29T19:31:41.000Z,100855
2019-05-29T19:32:56.000Z,100857
2019-05-29T19:35:11.000Z,100863
2019-05-29T19:36:12.000Z,100865
2019-05-29T19:37:12.000Z,100868
2019-05-29T19:38:12.000Z,100863
2019-05-29T19:40:12.000Z,100875
2019-05-29T19:42:12.000Z,100879
2019-05-29T19:44:12.000Z,100881
2019-05-29T19:46:12.000Z,100881
2019-05-29T19:47:56.000Z,100879
2019-05-29T19:49:12.000Z,100884
2019-05-29T19:51:12.000Z,100883
2019-05-29T19:53:12.000Z,100884
2019-05-29T19:55:12.000Z,100887
2019-05-29T19:57:12.000Z,100891
2019-05-29T19:59:12.000Z,100882
2019-05-29T20:00:12.000Z,100886
2019-05-29T20:02:12.000Z,100894
2019-05-29T20:04:12.000Z,100892
2019-05-29T20:06:12.000Z,100892
2019-05-29T20:07:12.000Z,100893
2019-05-29T20:09:12.000Z,100892
2019-05-29T20:11:12.000Z,100895
2019-05-29T20:12:56.000Z,100893
2019-05-29T20:14:12.000Z,100895
2019-05-29T20:16:12.000Z,100896
2019-05-29T20:18:12.000Z,100898
2019-05-29T20:19:56.000Z,100893
2019-05-29T20:21:12.000Z,100897
2019-05-29T20:22:12.000Z,100901
2019-05-29T20:23:12.000Z,100895
2019-05-29T20:25:12.000Z,100892
2019-05-29T20:26:56.000Z,100897
2019-05-29T20:27:57.000Z,100897
2019-05-29T20:28:57.000Z,100902
2019-05-29T20:30:57.000Z,100911
2019-05-29T20:32:57.000Z,100903
2019-05-29T20:34:58.000Z,100904
2019-05-29T20:37:12.000Z,100907
2019-05-29T20:39:12.000Z,100905
2019-05-29T20:41:12.000Z,100899
2019-05-29T20:42:57.000Z,100897
2019-05-29T20:44:12.000Z,100904
2019-05-29T20:46:12.000Z,100900
2019-05-29T20:48:12.000Z,100901
2019-05-29T20:49:57.000Z,100900
2019-05-29T20:52:12.000Z,100909
2019-05-29T20:53:12.000Z,100906
2019-05-29T20:54:57.000Z,100901
2019-05-29T20:57:12.000Z,100912
2019-05-29T20:58:12.000Z,100910
2019-05-29T21:00:12.000Z,100912
2019-05-29T21:01:47.000Z,100909
2019-05-29T21:03:57.000Z,100915
2019-05-29T21:05:57.000Z,100906
2019-05-29T21:07:57.000Z,100902
2019-05-29T21:09:58.000Z,100900
2019-05-29T21:11:58.000Z,100905
2019-05-29T21:13:58.000Z,100915
2019-05-29T21:16:12.000Z,100909
2019-05-29T21:17:12.000Z,100909
2019-05-29T21:18:12.000Z,100907
2019-05-29T21:19:12.000Z,100913
2019-05-29T21:20:42.000Z,100908
2019-05-29T21:22:42.000Z,100912
2019-05-29T21:23:57.000Z,100912
2019-05-29T21:25:42.000Z,100912
2019-05-29T21:27:46.000Z,100912
2019-05-29T21:28:49.000Z,100908
2019-05-29T21:30:42.000Z,100908
2019-05-29T21:31:58.000Z,100909
2019-05-29T21:33:46.000Z,100908
2019-05-29T21:36:12.000Z,100909
2019-05-29T21:37:12.000Z,100907
2019-05-29T21:39:12.000Z,100910
2019-05-29T21:40:57.000Z,100907
2019-05-29T21:42:57.000Z,100910
2019-05-29T21:44:57.000Z,100911
2019-05-29T21:46:57.000Z,100914
2019-05-29T21:48:42.000Z,100909
2019-05-29T21:50:58.000Z,100905
2019-05-29T21:52:58.000Z,100903
2019-05-29T21:54:58.000Z,100904
2019-05-29T21:56:58.000Z,100908
2019-05-29T21:58:57.000Z,100901
2019-05-29T22:00:12.000Z,100887
2019-05-29T22:02:12.000Z,100902
2019-05-29T22:03:12.000Z,100900
2019-05-29T22:04:41.000Z,100905
2019-05-29T22:05:42.000Z,100906
2019-05-29T22:07:57.000Z,100903
2019-05-29T22:09:57.000Z,100906
2019-05-29T22:11:57.000Z,100903
2019-05-29T22:13:57.000Z,100907
2019-05-29T22:15:57.000Z,100904
2019-05-29T22:17:57.000Z,100910
2019-05-29T22:20:12.000Z,100908
2019-05-29T22:21:56.000Z,100906
2019-05-29T22:22:56.000Z,100904
2019-05-29T22:23:57.000Z,100902
2019-05-29T22:25:12.000Z,100903
2019-05-29T22:26:12.000Z,100906
2019-05-29T22:28:12.000Z,100907
2019-05-29T22:30:12.000Z,100905
2019-05-29T22:32:12.000Z,100903
2019-05-29T22:34:12.000Z,100905
2019-05-29T22:36:12.000Z,100899
2019-05-29T22:37:57.000Z,100897
2019-05-29T22:39:57.000Z,100893
2019-05-29T22:42:12.000Z,100900
2019-05-29T22:43:12.000Z,100902
2019-05-29T22:44:56.000Z,100895
2019-05-29T22:45:57.000Z,100890
2019-05-29T22:46:57.000Z,100890
2019-05-29T22:48:57.000Z,100889
2019-05-29T22:49:56.000Z,100887
2019-05-29T22:51:56.000Z,100896
2019-05-29T22:52:56.000Z,100890
2019-05-29T22:54:56.000Z,100889
2019-05-29T22:56:56.000Z,100890
2019-05-29T22:58:56.000Z,100895
2019-05-29T23:00:56.000Z,100893
2019-05-29T23:02:56.000Z,100883
2019-05-29T23:03:56.000Z,100886
2019-05-29T23:04:56.000Z,100883
2019-05-29T23:06:56.000Z,100882
2019-05-29T23:08:56.000Z,100886
2019-05-29T23:10:56.000Z,100884
2019-05-29T23:12:56.000Z,100884
2019-05-29T23:13:56.000Z,100885
2019-05-29T23:14:56.000Z,100879
2019-05-29T23:16:56.000Z,100879
2019-05-29T23:18:56.000Z,100884
2019-05-29T23:20:56.000Z,100882